createdAt,value
2024-02-22T00:01:13.184Z,2.20
2024-02-22T00:03:41.601Z,3.20
2024-02-22T00:06:11.071Z,2.40
2024-02-22T00:08:40.281Z,2.20
2024-02-22T00:11:08.735Z,1.67
2024-02-22T00:13:36.961Z,1.97
2024-02-22T00:16:09.612Z,1.27
2024-02-22T00:18:37.843Z,1.50
2024-02-22T00:21:06.624Z,2.30
2024-02-22T00:23:36.069Z,2.80
2024-02-22T00:26:04.217Z,1.07
2024-02-22T00:28:32.202Z,2.07
2024-02-22T00:31:00.444Z,2.90
2024-02-22T00:33:28.634Z,1.40
2024-02-22T00:35:56.557Z,1.03
2024-02-22T00:38:24.568Z,1.00
2024-02-22T00:40:54.727Z,1.63
2024-02-22T00:43:22.950Z,1.50
2024-02-22T00:45:51.215Z,1.90
2024-02-22T00:48:19.286Z,1.90
2024-02-22T00:50:47.719Z,1.53
2024-02-22T00:53:16.421Z,1.23
2024-02-22T00:55:44.437Z,0.80
2024-02-22T00:58:13.781Z,1.70
2024-02-22T01:00:41.983Z,1.30
2024-02-22T01:03:09.961Z,1.52
2024-02-22T01:05:38.071Z,1.63
2024-02-22T01:08:06.945Z,2.50
2024-02-22T01:10:35.666Z,1.63
2024-02-22T01:13:03.853Z,1.43
2024-02-22T01:15:36.216Z,0.80
2024-02-22T01:18:05.701Z,1.23
2024-02-22T01:20:33.918Z,1.40
2024-02-22T01:23:04.404Z,1.13
2024-02-22T01:25:32.414Z,1.00
2024-02-22T01:28:00.487Z,0.77
2024-02-22T01:30:28.417Z,0.80
2024-02-22T01:32:57.737Z,1.43
2024-02-22T01:35:26.075Z,1.83
2024-02-22T01:37:54.198Z,1.10
2024-02-22T01:40:23.256Z,1.20
2024-02-22T01:42:52.297Z,1.87
2024-02-22T01:45:20.229Z,1.43
2024-02-22T01:47:48.241Z,1.20
2024-02-22T01:50:19.010Z,0.97
2024-02-22T01:52:47.708Z,0.90
2024-02-22T01:55:17.608Z,0.63
2024-02-22T01:57:46.062Z,1.00
2024-02-22T02:00:18.482Z,1.17
2024-02-22T02:02:46.617Z,1.95
2024-02-22T02:05:14.594Z,1.00
2024-02-22T02:07:44.311Z,0.60
2024-02-22T02:10:13.642Z,0.73
2024-02-22T02:12:41.614Z,0.70
2024-02-22T02:15:10.068Z,1.63
2024-02-22T02:17:39.903Z,3.53
2024-02-22T02:20:11.644Z,0.60
2024-02-22T02:23:01.886Z,1.23
2024-02-22T02:25:32.027Z,0.87
2024-02-22T02:28:00.160Z,2.20
2024-02-22T02:30:28.289Z,1.07
2024-02-22T02:32:56.312Z,1.93
2024-02-22T02:35:24.485Z,0.60
2024-02-22T02:37:52.701Z,1.47
2024-02-22T02:40:20.682Z,0.70
2024-02-22T02:42:49.992Z,0.63
2024-02-22T02:45:18.065Z,1.77
2024-02-22T02:47:46.166Z,1.23
2024-02-22T02:50:15.462Z,1.03
2024-02-22T02:52:43.798Z,0.87
2024-02-22T02:55:13.608Z,1.77
2024-02-22T02:57:41.648Z,1.03
2024-02-22T03:00:14.709Z,0.73
2024-02-22T03:02:43.092Z,1.10
2024-02-22T03:05:11.970Z,1.10
2024-02-22T03:07:40.396Z,0.70
2024-02-22T03:10:09.321Z,0.80
2024-02-22T03:12:37.337Z,1.00
2024-02-22T03:15:06.085Z,1.10
2024-02-22T03:17:35.488Z,0.63
2024-02-22T03:20:06.110Z,0.60
2024-02-22T03:22:34.148Z,1.60
2024-02-22T03:25:05.185Z,0.90
2024-02-22T03:27:33.777Z,2.20
2024-02-22T03:30:02.561Z,1.33
2024-02-22T03:32:31.287Z,2.20
2024-02-22T03:35:00.783Z,1.10
2024-02-22T03:37:30.488Z,1.73
2024-02-22T03:39:59.561Z,1.37
2024-02-22T03:42:27.616Z,1.03
2024-02-22T03:44:55.597Z,1.00
2024-02-22T03:47:23.629Z,1.10
2024-02-22T03:49:51.873Z,0.70
2024-02-22T03:52:22.128Z,0.80
2024-02-22T03:54:50.206Z,1.83
2024-02-22T03:57:18.271Z,0.60
2024-02-22T03:59:46.220Z,1.53
2024-02-22T04:02:14.276Z,1.73
2024-02-22T04:04:51.011Z,0.90
2024-02-22T04:07:19.283Z,6.87
2024-02-22T04:09:48.657Z,3.77
2024-02-22T04:12:16.786Z,1.87
2024-02-22T04:14:44.802Z,2.23
2024-02-22T04:17:12.827Z,1.90
2024-02-22T04:19:41.061Z,1.00
2024-02-22T04:22:09.397Z,1.87
2024-02-22T04:24:37.514Z,1.50
2024-02-22T04:27:10.268Z,1.27
2024-02-22T04:29:38.544Z,0.80
2024-02-22T04:32:08.709Z,2.07
2024-02-22T04:34:36.970Z,2.07
2024-02-22T04:37:05.442Z,2.00
2024-02-22T04:39:33.428Z,5.80
2024-02-22T04:42:01.485Z,2.10
2024-02-22T04:44:30.742Z,1.30
2024-02-22T04:46:58.762Z,1.33
2024-02-22T04:49:28.106Z,1.83
2024-02-22T04:51:57.268Z,1.70
2024-02-22T04:54:26.094Z,2.03
2024-02-22T04:56:54.706Z,1.57
2024-02-22T04:59:22.703Z,0.90
2024-02-22T05:01:52.185Z,1.00
2024-02-22T05:04:20.658Z,1.23
2024-02-22T05:06:48.639Z,1.80
2024-02-22T05:09:16.594Z,3.40
2024-02-22T05:11:49.088Z,3.83
2024-02-22T05:14:17.656Z,1.40
2024-02-22T05:16:45.750Z,1.57
2024-02-22T05:19:15.522Z,0.87
2024-02-22T05:21:43.473Z,1.87
2024-02-22T05:24:11.967Z,1.57
2024-02-22T05:26:50.872Z,2.30
2024-02-22T05:29:18.872Z,3.00
2024-02-22T05:31:46.862Z,1.47
2024-02-22T05:34:16.517Z,2.60
2024-02-22T05:36:44.520Z,2.10
2024-02-22T05:39:12.536Z,0.90
2024-02-22T05:41:40.627Z,1.53
2024-02-22T05:44:08.617Z,3.20
2024-02-22T05:46:36.715Z,11.80
2024-02-22T05:49:05.016Z,8.00
2024-02-22T05:51:35.181Z,10.90
2024-02-22T05:54:03.375Z,1.97
2024-02-22T05:56:31.533Z,3.00
2024-02-22T05:58:59.674Z,4.90
2024-02-22T06:01:27.653Z,2.47
2024-02-22T06:03:56.153Z,2.30
2024-02-22T06:06:24.148Z,1.43
2024-02-22T06:08:53.471Z,7.10
2024-02-22T06:11:25.016Z,3.47
2024-02-22T06:13:53.012Z,2.43
2024-02-22T06:16:21.033Z,2.20
2024-02-22T06:18:49.129Z,1.80
2024-02-22T06:21:17.157Z,2.40
2024-02-22T06:23:45.129Z,4.10
2024-02-22T06:26:15.466Z,4.27
2024-02-22T06:28:43.489Z,5.10
2024-02-22T06:31:12.005Z,2.70
2024-02-22T06:33:40.719Z,3.50
2024-02-22T06:36:10.900Z,4.23
2024-02-22T06:38:40.772Z,3.27
2024-02-22T06:41:09.142Z,4.80
2024-02-22T06:43:39.533Z,2.07
2024-02-22T06:46:08.745Z,3.50
2024-02-22T06:48:36.872Z,3.53
2024-02-22T06:51:05.235Z,4.60
2024-02-22T06:53:33.458Z,4.43
2024-02-22T06:56:01.526Z,2.90
2024-02-22T06:58:29.463Z,4.57
2024-02-22T07:00:59.672Z,3.17
2024-02-22T07:03:27.678Z,3.83
2024-02-22T07:05:55.837Z,2.80
2024-02-22T07:08:24.103Z,6.67
2024-02-22T07:10:52.203Z,4.43
2024-02-22T07:13:20.858Z,10.43
2024-02-22T07:15:52.241Z,2.40
2024-02-22T07:18:21.667Z,4.50
2024-02-22T07:20:49.676Z,5.70
2024-02-22T07:23:17.936Z,3.03
2024-02-22T07:25:46.123Z,5.20
2024-02-22T07:28:15.482Z,4.20
2024-02-22T07:30:44.700Z,3.33
2024-02-22T07:33:12.732Z,6.10
2024-02-22T07:35:42.046Z,7.03
2024-02-22T07:38:10.213Z,3.77
2024-02-22T07:40:38.178Z,8.03
2024-02-22T07:43:06.332Z,13.40
2024-02-22T07:45:34.473Z,4.30
2024-02-22T07:48:09.641Z,7.27
2024-02-22T07:50:38.446Z,4.40
2024-02-22T07:53:07.952Z,8.90
2024-02-22T07:55:37.764Z,6.27
2024-02-22T07:58:06.192Z,4.73
2024-02-22T08:00:34.213Z,10.90
2024-02-22T08:03:02.264Z,6.17
2024-02-22T08:05:30.501Z,4.47
2024-02-22T08:07:58.579Z,7.10
2024-02-22T08:10:28.461Z,8.13
2024-02-22T08:12:56.720Z,4.40
2024-02-22T08:15:24.737Z,4.97
2024-02-22T08:17:52.760Z,3.70
2024-02-22T08:20:21.242Z,3.57
2024-02-22T08:22:49.239Z,4.43
2024-02-22T08:25:18.367Z,4.80
2024-02-22T08:27:58.360Z,5.17
2024-02-22T08:30:30.706Z,8.30
2024-02-22T08:33:00.193Z,5.87
2024-02-22T08:35:28.325Z,4.73
2024-02-22T08:37:56.592Z,6.87
2024-02-22T08:40:34.802Z,6.47
2024-02-22T08:43:12.179Z,4.60
2024-02-22T08:45:40.315Z,9.30
2024-02-22T08:48:09.415Z,6.70
2024-02-22T08:50:37.570Z,7.93
2024-02-22T08:53:06.145Z,4.40
2024-02-22T08:55:34.247Z,6.57
2024-02-22T08:58:02.513Z,6.60
2024-02-22T09:00:32.035Z,3.83
2024-02-22T09:03:00.092Z,3.10
2024-02-22T09:05:29.012Z,6.40
2024-02-22T09:07:57.609Z,6.90
2024-02-22T09:10:25.795Z,4.30
2024-02-22T09:12:53.844Z,6.77
2024-02-22T09:15:22.125Z,7.17
2024-02-22T09:17:51.607Z,5.83
2024-02-22T09:20:20.970Z,8.80
2024-02-22T09:22:50.233Z,5.43
2024-02-22T09:25:18.738Z,8.53
2024-02-22T09:27:47.512Z,4.57
2024-02-22T09:30:15.993Z,5.30
2024-02-22T09:32:44.061Z,6.00
2024-02-22T09:35:13.451Z,6.40
2024-02-22T09:37:43.762Z,5.77
2024-02-22T09:40:14.227Z,4.87
2024-02-22T09:42:43.050Z,8.30
2024-02-22T09:45:11.642Z,8.57
2024-02-22T09:47:39.801Z,4.83
2024-02-22T09:50:11.341Z,9.40
2024-02-22T09:52:41.619Z,4.00
2024-02-22T09:55:12.785Z,4.90
2024-02-22T09:57:41.402Z,5.50
2024-02-22T10:00:10.060Z,6.30
2024-02-22T10:02:38.646Z,5.27
2024-02-22T10:05:12.334Z,7.63
2024-02-22T10:07:42.468Z,8.07
2024-02-22T10:10:10.871Z,5.70
2024-02-22T10:12:48.153Z,8.47
2024-02-22T10:15:26.861Z,5.97
2024-02-22T10:17:55.339Z,5.37
2024-02-22T10:20:31.768Z,5.87
2024-02-22T10:23:09.114Z,6.30
2024-02-22T10:25:38.468Z,5.90
2024-02-22T10:28:07.455Z,8.47
2024-02-22T10:30:35.580Z,8.37
2024-02-22T10:33:04.364Z,5.03
2024-02-22T10:35:35.315Z,6.20
2024-02-22T10:38:05.199Z,6.27
2024-02-22T10:40:35.702Z,4.70
2024-02-22T10:43:06.517Z,5.80
2024-02-22T10:45:35.205Z,5.83
2024-02-22T10:48:08.214Z,5.50
2024-02-22T10:50:37.707Z,6.03
2024-02-22T10:53:06.410Z,5.43
2024-02-22T10:55:39.320Z,8.53
2024-02-22T10:58:10.223Z,4.40
2024-02-22T11:00:38.870Z,7.27
2024-02-22T11:03:07.281Z,6.60
2024-02-22T11:05:40.092Z,4.80
2024-02-22T11:08:08.700Z,6.73
2024-02-22T11:10:38.063Z,5.97
2024-02-22T11:13:06.428Z,7.10
2024-02-22T11:15:37.112Z,6.27
2024-02-22T11:18:06.095Z,4.60
2024-02-22T11:20:36.595Z,6.00
2024-02-22T11:23:14.457Z,6.03
2024-02-22T11:25:45.459Z,5.87
2024-02-22T11:28:15.277Z,7.20
2024-02-22T11:30:45.326Z,4.50
2024-02-22T11:33:15.319Z,5.03
2024-02-22T11:35:43.426Z,6.07
2024-02-22T11:38:12.191Z,6.70
2024-02-22T11:40:40.887Z,3.90
2024-02-22T11:43:10.237Z,4.17
2024-02-22T11:45:40.438Z,7.20
2024-02-22T11:48:08.925Z,10.10
2024-02-22T11:50:37.024Z,4.70
2024-02-22T11:53:05.413Z,3.47
2024-02-22T11:55:35.984Z,6.10
2024-02-22T11:58:04.272Z,5.53
2024-02-22T12:00:33.746Z,5.27
2024-02-22T12:03:01.997Z,4.30
2024-02-22T12:05:30.303Z,5.20
2024-02-22T12:07:59.381Z,3.80
2024-02-22T12:10:27.429Z,6.00
2024-02-22T12:12:55.405Z,4.50
2024-02-22T12:15:25.622Z,6.23
2024-02-22T12:17:57.450Z,4.47
2024-02-22T12:20:27.579Z,4.37
2024-02-22T12:22:56.050Z,5.23
2024-02-22T12:25:24.406Z,2.73
2024-02-22T12:27:56.182Z,4.20
2024-02-22T12:30:24.605Z,5.53
2024-02-22T12:32:53.498Z,3.93
2024-02-22T12:35:23.672Z,4.97
2024-02-22T12:37:52.029Z,2.60
2024-02-22T12:40:20.046Z,3.63
2024-02-22T12:42:54.912Z,4.43
2024-02-22T12:45:23.473Z,4.47
2024-02-22T12:47:52.256Z,4.80
2024-02-22T12:50:22.092Z,4.30
2024-02-22T12:52:51.932Z,6.77
2024-02-22T12:55:21.514Z,3.47
2024-02-22T12:57:49.491Z,3.27
2024-02-22T13:00:18.486Z,4.60
2024-02-22T13:02:47.541Z,6.13
2024-02-22T13:05:15.622Z,2.47
2024-02-22T13:07:43.668Z,4.00
2024-02-22T13:10:13.197Z,2.57
2024-02-22T13:12:41.286Z,2.33
2024-02-22T13:15:10.191Z,3.73
2024-02-22T13:17:39.017Z,2.20
2024-02-22T13:20:09.120Z,2.10
2024-02-22T13:22:37.585Z,2.53
2024-02-22T13:25:06.669Z,2.83
2024-02-22T13:27:36.808Z,2.13
2024-02-22T13:30:10.953Z,4.40
2024-02-22T13:32:40.153Z,4.03
2024-02-22T13:35:09.602Z,3.40
2024-02-22T13:37:38.106Z,2.20
2024-02-22T13:40:12.620Z,4.00
2024-02-22T13:42:45.001Z,2.77
2024-02-22T13:45:13.137Z,2.87
2024-02-22T13:47:41.193Z,4.50
2024-02-22T13:50:10.941Z,4.63
2024-02-22T13:52:40.946Z,2.80
2024-02-22T13:55:11.978Z,7.87
2024-02-22T13:57:40.592Z,3.30
2024-02-22T14:00:11.620Z,3.17
2024-02-22T14:02:40.240Z,4.07
2024-02-22T14:05:09.092Z,5.23
2024-02-22T14:07:38.055Z,4.00
2024-02-22T14:10:08.151Z,5.13
2024-02-22T14:12:36.167Z,4.97
2024-02-22T14:15:04.851Z,6.63
2024-02-22T14:17:34.589Z,4.70
2024-02-22T14:20:03.333Z,2.83
2024-02-22T14:22:31.446Z,2.97
2024-02-22T14:24:59.453Z,3.40
2024-02-22T14:27:32.378Z,3.57
2024-02-22T14:30:00.430Z,5.77
2024-02-22T14:32:28.539Z,4.27
2024-02-22T14:34:58.228Z,5.07
2024-02-22T14:37:26.390Z,5.23
2024-02-22T14:39:54.446Z,3.33
2024-02-22T14:45:15.081Z,5.60
2024-02-22T14:47:43.273Z,2.43
2024-02-22T14:50:14.150Z,2.70
2024-02-22T14:52:42.240Z,4.03
2024-02-22T14:55:11.115Z,6.70
2024-02-22T14:57:39.195Z,4.80
2024-02-22T15:00:09.374Z,7.73
2024-02-22T15:02:40.358Z,5.20
2024-02-22T15:05:08.896Z,4.03
2024-02-22T15:07:38.782Z,7.13
2024-02-22T15:10:07.404Z,5.03
2024-02-22T15:12:35.470Z,6.20
2024-02-22T15:15:04.074Z,4.00
2024-02-22T15:17:32.398Z,3.00
2024-02-22T15:20:00.497Z,6.90
2024-02-22T15:22:28.593Z,9.67
2024-02-22T15:24:58.224Z,4.60
2024-02-22T15:27:27.659Z,6.03
2024-02-22T15:29:55.932Z,5.80
2024-02-22T15:32:24.194Z,5.57
2024-02-22T15:34:52.323Z,10.90
2024-02-22T15:37:20.430Z,14.40
2024-02-22T15:39:49.557Z,7.40
2024-02-22T15:42:18.909Z,5.60
2024-02-22T15:44:46.835Z,5.07
2024-02-22T15:47:15.092Z,5.83
2024-02-22T15:49:44.111Z,4.97
2024-02-22T15:52:12.079Z,5.73
2024-02-22T15:54:40.212Z,7.20
2024-02-22T15:57:10.347Z,6.10
2024-02-22T15:59:39.759Z,4.87
2024-02-22T16:02:08.196Z,6.77
2024-02-22T16:04:37.004Z,9.67
2024-02-22T16:07:05.652Z,5.70
2024-02-22T16:09:33.700Z,6.30
2024-02-22T16:12:01.821Z,7.50
2024-02-22T16:14:29.923Z,5.90
2024-02-22T16:17:00.064Z,7.90
2024-02-22T16:19:28.117Z,6.80
2024-02-22T16:21:59.510Z,6.30
2024-02-22T16:24:28.924Z,2.73
2024-02-22T16:26:56.873Z,5.10
2024-02-22T16:29:25.809Z,9.00
2024-02-22T16:31:54.265Z,7.03
2024-02-22T16:34:26.735Z,5.93
2024-02-22T16:36:55.121Z,4.70
2024-02-22T16:39:28.072Z,4.17
2024-02-22T16:42:02.960Z,5.17
2024-02-22T16:44:31.008Z,8.50
2024-02-22T16:46:59.124Z,5.20
2024-02-22T16:49:29.594Z,5.60
2024-02-22T16:51:57.566Z,8.17
2024-02-22T16:54:25.500Z,4.30
2024-02-22T16:56:53.768Z,5.70
2024-02-22T16:59:21.899Z,3.70
2024-02-22T17:01:49.959Z,4.07
2024-02-22T17:04:18.143Z,5.50
2024-02-22T17:06:47.530Z,4.47
2024-02-22T17:09:15.546Z,7.90
2024-02-22T17:11:43.712Z,6.30
2024-02-22T17:14:11.984Z,5.87
2024-02-22T17:16:41.665Z,9.60
2024-02-22T17:19:10.171Z,8.00
2024-02-22T17:21:38.132Z,6.87
2024-02-22T17:24:08.640Z,11.80
2024-02-22T17:26:36.757Z,15.33
2024-02-22T17:29:04.821Z,12.53
2024-02-22T17:31:34.066Z,9.27
2024-02-22T17:34:02.455Z,8.53
2024-02-22T17:36:30.514Z,11.17
2024-02-22T17:38:58.508Z,10.90
2024-02-22T17:41:28.500Z,6.77
2024-02-22T17:43:57.161Z,9.23
2024-02-22T17:46:25.614Z,7.70
2024-02-22T17:48:55.923Z,6.17
2024-02-22T17:51:24.128Z,7.53
2024-02-22T17:53:52.075Z,8.90
2024-02-22T17:56:20.521Z,9.80
2024-02-22T17:58:55.305Z,11.20
2024-02-22T18:01:25.565Z,7.00
2024-02-22T18:03:54.180Z,9.37
2024-02-22T18:06:22.746Z,7.37
2024-02-22T18:08:50.963Z,6.67
2024-02-22T18:11:19.157Z,5.00
2024-02-22T18:13:47.394Z,7.30
2024-02-22T18:16:17.512Z,7.87
2024-02-22T18:18:46.761Z,13.30
2024-02-22T18:21:15.252Z,12.57
2024-02-22T18:23:45.926Z,8.43
2024-02-22T18:26:15.202Z,8.10
2024-02-22T18:28:44.747Z,6.93
2024-02-22T18:31:12.947Z,7.43
2024-02-22T18:33:42.464Z,7.27
2024-02-22T18:36:11.303Z,6.40
2024-02-22T18:38:42.664Z,7.73
2024-02-22T18:41:13.895Z,8.03
2024-02-22T18:43:43.287Z,7.50
2024-02-22T18:46:11.624Z,10.43
2024-02-22T18:48:39.767Z,4.73
2024-02-22T18:51:09.567Z,13.53
2024-02-22T18:53:38.973Z,6.33
2024-02-22T18:56:07.459Z,11.20
2024-02-22T18:58:35.580Z,7.23
2024-02-22T19:01:03.730Z,10.93
2024-02-22T19:03:31.814Z,9.93
2024-02-22T19:06:00.316Z,7.40
2024-02-22T19:08:29.667Z,8.50
2024-02-22T19:10:57.693Z,6.77
2024-02-22T19:13:28.058Z,11.17
2024-02-22T19:15:56.121Z,11.10
2024-02-22T19:18:24.296Z,15.90
2024-02-22T19:20:53.517Z,9.13
2024-02-22T19:23:23.173Z,11.53
2024-02-22T19:25:52.928Z,9.70
2024-02-22T19:28:23.322Z,8.20
2024-02-22T19:30:51.586Z,10.50
2024-02-22T19:33:20.235Z,10.63
2024-02-22T19:35:48.312Z,10.67
2024-02-22T19:38:21.394Z,8.70
2024-02-22T19:40:51.459Z,10.43
2024-02-22T19:43:21.672Z,11.17
2024-02-22T19:45:50.081Z,5.63
2024-02-22T19:48:18.333Z,10.00
2024-02-22T19:50:46.576Z,9.57
2024-02-22T19:53:14.972Z,7.17
2024-02-22T19:55:44.386Z,16.63
2024-02-22T19:58:14.952Z,10.40
2024-02-22T20:00:46.614Z,7.73
2024-02-22T20:03:15.313Z,11.03
2024-02-22T20:05:43.601Z,9.90
2024-02-22T20:08:12.318Z,13.10
2024-02-22T20:10:41.362Z,9.07
2024-02-22T20:13:11.259Z,11.13
2024-02-22T20:15:39.228Z,9.90
2024-02-22T20:18:08.811Z,17.40
2024-02-22T20:20:36.839Z,10.37
2024-02-22T20:23:05.127Z,9.27
2024-02-22T20:25:33.458Z,9.23
2024-02-22T20:28:01.660Z,10.70
2024-02-22T20:30:29.582Z,11.30
2024-02-22T20:32:57.684Z,16.73
2024-02-22T20:35:27.184Z,13.53
2024-02-22T20:37:55.482Z,11.77
2024-02-22T20:40:23.753Z,13.07
2024-02-22T20:42:52.394Z,8.50
2024-02-22T20:45:20.916Z,12.70
2024-02-22T20:47:49.378Z,9.80
2024-02-22T20:50:18.358Z,13.70
2024-02-22T20:52:48.698Z,13.97
2024-02-22T20:55:17.696Z,13.63
2024-02-22T20:57:45.708Z,13.73
2024-02-22T21:00:17.924Z,14.43
2024-02-22T21:02:49.072Z,15.53
2024-02-22T21:05:17.148Z,11.77
2024-02-22T21:07:45.496Z,12.43
2024-02-22T21:10:17.573Z,11.70
2024-02-22T21:12:45.511Z,11.27
2024-02-22T21:15:13.441Z,10.63
2024-02-22T21:17:41.772Z,12.97
2024-02-22T21:20:11.983Z,12.97
2024-02-22T21:22:40.038Z,12.60
2024-02-22T21:25:08.658Z,10.80
2024-02-22T21:27:38.304Z,12.03
2024-02-22T21:30:07.419Z,11.70
2024-02-22T21:32:35.740Z,14.73
2024-02-22T21:35:07.411Z,14.80
2024-02-22T21:37:35.566Z,15.20
2024-02-22T21:40:06.386Z,10.90
2024-02-22T21:42:37.184Z,18.47
2024-02-22T21:45:06.099Z,13.60
2024-02-22T21:47:35.506Z,14.17
2024-02-22T21:50:04.285Z,12.83
2024-02-22T21:52:32.464Z,12.33
2024-02-22T21:55:01.376Z,12.70
2024-02-22T21:57:30.323Z,13.97
2024-02-22T22:00:00.084Z,18.03
2024-02-22T22:02:29.376Z,20.73
2024-02-22T22:04:58.251Z,17.40
2024-02-22T22:07:26.228Z,11.20
2024-02-22T22:09:54.389Z,15.43
2024-02-22T22:12:22.600Z,12.60
2024-02-22T22:14:50.557Z,15.23
2024-02-22T22:17:20.225Z,12.67
2024-02-22T22:19:48.690Z,10.17
2024-02-22T22:22:16.719Z,14.10
2024-02-22T22:24:44.689Z,12.60
2024-02-22T22:27:12.741Z,10.27
2024-02-22T22:29:41.332Z,11.60
2024-02-22T22:32:09.516Z,12.67
2024-02-22T22:34:39.043Z,13.23
2024-02-22T22:37:08.123Z,10.77
2024-02-22T22:39:36.076Z,12.60
2024-02-22T22:42:04.378Z,9.67
2024-02-22T22:44:36.596Z,8.77
2024-02-22T22:47:05.346Z,9.60
2024-02-22T22:49:33.606Z,8.90
2024-02-22T22:52:03.730Z,7.57
2024-02-22T22:54:32.107Z,9.10
2024-02-22T22:57:00.209Z,10.03
2024-02-22T22:59:28.257Z,10.57
2024-02-22T23:01:57.734Z,11.90
2024-02-22T23:04:26.069Z,9.47
2024-02-22T23:06:54.622Z,9.50
2024-02-22T23:09:25.150Z,6.60
2024-02-22T23:11:53.543Z,5.67
2024-02-22T23:14:21.880Z,6.60
2024-02-22T23:16:53.439Z,4.30
2024-02-22T23:19:21.541Z,4.00
2024-02-22T23:21:49.482Z,1.60
2024-02-22T23:24:17.712Z,1.33
2024-02-22T23:26:47.277Z,1.63
2024-02-22T23:29:15.371Z,0.80
2024-02-22T23:31:43.384Z,2.30
2024-02-22T23:34:11.884Z,0.67
2024-02-22T23:36:39.901Z,0.73
2024-02-22T23:39:08.370Z,0.60
2024-02-22T23:41:36.545Z,1.53
2024-02-22T23:44:07.145Z,1.63
2024-02-22T23:46:35.266Z,0.80
2024-02-22T23:49:04.798Z,1.10
2024-02-22T23:51:32.893Z,0.80
2024-02-22T23:54:05.799Z,0.70
2024-02-22T23:56:34.007Z,0.80
2024-02-22T23:59:02.139Z,0.90
